sensor_id;sensor_type;location;lat;lon;timestamp;temperature;humidity
30290;DHT22;17105;55.652;37.710;2023-04-30T00:00:19;8.50;90.70
30290;DHT22;17105;55.652;37.710;2023-04-30T00:00:54;8.50;90.70
30290;DHT22;17105;55.652;37.710;2023-04-30T00:01:28;8.50;90.70
30290;DHT22;17105;55.652;37.710;2023-04-30T00:02:03;8.60;90.80
30290;DHT22;17105;55.652;37.710;2023-04-30T00:02:37;8.60;90.80
30290;DHT22;17105;55.652;37.710;2023-04-30T00:03:11;8.50;90.80
30290;DHT22;17105;55.652;37.710;2023-04-30T00:03:47;8.50;90.90
30290;DHT22;17105;55.652;37.710;2023-04-30T00:04:22;8.50;90.90
30290;DHT22;17105;55.652;37.710;2023-04-30T00:04:57;8.50;90.90
30290;DHT22;17105;55.652;37.710;2023-04-30T00:05:32;8.50;90.90
30290;DHT22;17105;55.652;37.710;2023-04-30T00:06:05;8.50;90.90
30290;DHT22;17105;55.652;37.710;2023-04-30T00:06:39;8.60;90.90
30290;DHT22;17105;55.652;37.710;2023-04-30T00:07:14;8.50;90.90
30290;DHT22;17105;55.652;37.710;2023-04-30T00:07:48;8.50;90.90
30290;DHT22;17105;55.652;37.710;2023-04-30T00:08:23;8.50;91.00
30290;DHT22;17105;55.652;37.710;2023-04-30T00:09:00;8.50;91.00
30290;DHT22;17105;55.652;37.710;2023-04-30T00:09:33;8.50;91.00
30290;DHT22;17105;55.652;37.710;2023-04-30T00:10:09;8.50;91.00
30290;DHT22;17105;55.652;37.710;2023-04-30T00:10:44;8.50;91.00
30290;DHT22;17105;55.652;37.710;2023-04-30T00:11:18;8.50;91.10
30290;DHT22;17105;55.652;37.710;2023-04-30T00:11:52;8.50;91.10
30290;DHT22;17105;55.652;37.710;2023-04-30T00:12:26;8.50;91.10
30290;DHT22;17105;55.652;37.710;2023-04-30T00:13:01;8.50;91.10
30290;DHT22;17105;55.652;37.710;2023-04-30T00:13:35;8.50;91.10
30290;DHT22;17105;55.652;37.710;2023-04-30T00:14:08;8.50;91.10
30290;DHT22;17105;55.652;37.710;2023-04-30T00:14:42;8.50;91.10
30290;DHT22;17105;55.652;37.710;2023-04-30T00:15:17;8.50;91.20
30290;DHT22;17105;55.652;37.710;2023-04-30T00:15:50;8.50;91.20
30290;DHT22;17105;55.652;37.710;2023-04-30T00:16:24;8.50;91.20
30290;DHT22;17105;55.652;37.710;2023-04-30T00:16:57;8.50;91.30
30290;DHT22;17105;55.652;37.710;2023-04-30T00:17:30;8.50;91.30
30290;DHT22;17105;55.652;37.710;2023-04-30T00:18:06;8.50;91.30
30290;DHT22;17105;55.652;37.710;2023-04-30T00:18:39;8.50;91.30
30290;DHT22;17105;55.652;37.710;2023-04-30T00:19:13;8.50;91.30
30290;DHT22;17105;55.652;37.710;2023-04-30T00:19:49;8.50;91.30
30290;DHT22;17105;55.652;37.710;2023-04-30T00:20:24;8.40;91.40
30290;DHT22;17105;55.652;37.710;2023-04-30T00:20:58;8.50;91.40
30290;DHT22;17105;55.652;37.710;2023-04-30T00:21:33;8.50;91.30
30290;DHT22;17105;55.652;37.710;2023-04-30T00:22:06;8.50;91.40
30290;DHT22;17105;55.652;37.710;2023-04-30T00:22:40;8.40;91.40
30290;DHT22;17105;55.652;37.710;2023-04-30T00:23:14;8.40;91.40
30290;DHT22;17105;55.652;37.710;2023-04-30T00:23:48;8.40;91.40
30290;DHT22;17105;55.652;37.710;2023-04-30T00:24:24;8.40;91.50
30290;DHT22;17105;55.652;37.710;2023-04-30T00:24:59;8.40;91.50
30290;DHT22;17105;55.652;37.710;2023-04-30T00:25:33;8.40;91.60
30290;DHT22;17105;55.652;37.710;2023-04-30T00:26:07;8.40;91.50
30290;DHT22;17105;55.652;37.710;2023-04-30T00:26:41;8.40;91.50
30290;DHT22;17105;55.652;37.710;2023-04-30T00:27:16;8.40;91.60
30290;DHT22;17105;55.652;37.710;2023-04-30T00:27:50;8.40;91.60
30290;DHT22;17105;55.652;37.710;2023-04-30T00:28:24;8.40;91.70
30290;DHT22;17105;55.652;37.710;2023-04-30T00:28:58;8.40;91.70
30290;DHT22;17105;55.652;37.710;2023-04-30T00:29:32;8.40;91.70
30290;DHT22;17105;55.652;37.710;2023-04-30T00:30:07;8.40;91.90
30290;DHT22;17105;55.652;37.710;2023-04-30T00:30:42;8.40;91.70
30290;DHT22;17105;55.652;37.710;2023-04-30T00:31:17;8.40;91.70
30290;DHT22;17105;55.652;37.710;2023-04-30T00:31:51;8.40;91.70
30290;DHT22;17105;55.652;37.710;2023-04-30T00:32:26;8.40;91.80
30290;DHT22;17105;55.652;37.710;2023-04-30T00:33:00;8.40;91.80
30290;DHT22;17105;55.652;37.710;2023-04-30T00:33:34;8.40;91.80
30290;DHT22;17105;55.652;37.710;2023-04-30T00:34:09;8.30;91.80
30290;DHT22;17105;55.652;37.710;2023-04-30T00:34:43;8.40;91.80
30290;DHT22;17105;55.652;37.710;2023-04-30T00:35:17;8.30;91.90
30290;DHT22;17105;55.652;37.710;2023-04-30T00:35:53;8.30;91.90
30290;DHT22;17105;55.652;37.710;2023-04-30T00:36:29;8.30;91.90
30290;DHT22;17105;55.652;37.710;2023-04-30T00:37:02;8.30;92.00
30290;DHT22;17105;55.652;37.710;2023-04-30T00:37:37;8.30;92.20
30290;DHT22;17105;55.652;37.710;2023-04-30T00:38:10;8.30;92.00
30290;DHT22;17105;55.652;37.710;2023-04-30T00:38:44;8.30;92.10
30290;DHT22;17105;55.652;37.710;2023-04-30T00:39:18;8.30;92.10
30290;DHT22;17105;55.652;37.710;2023-04-30T00:39:52;8.30;92.10
30290;DHT22;17105;55.652;37.710;2023-04-30T00:40:26;8.30;92.10
30290;DHT22;17105;55.652;37.710;2023-04-30T00:40:59;8.40;92.10
30290;DHT22;17105;55.652;37.710;2023-04-30T00:41:34;8.40;92.20
30290;DHT22;17105;55.652;37.710;2023-04-30T00:42:09;8.40;92.30
30290;DHT22;17105;55.652;37.710;2023-04-30T00:42:42;8.30;92.40
30290;DHT22;17105;55.652;37.710;2023-04-30T00:43:17;8.30;92.40
30290;DHT22;17105;55.652;37.710;2023-04-30T00:43:50;8.40;92.50
30290;DHT22;17105;55.652;37.710;2023-04-30T00:44:24;8.40;92.50
30290;DHT22;17105;55.652;37.710;2023-04-30T00:44:58;8.40;92.60
30290;DHT22;17105;55.652;37.710;2023-04-30T00:45:34;8.40;92.60
30290;DHT22;17105;55.652;37.710;2023-04-30T00:46:09;8.40;92.60
30290;DHT22;17105;55.652;37.710;2023-04-30T00:46:43;8.40;92.60
30290;DHT22;17105;55.652;37.710;2023-04-30T00:47:19;8.40;92.50
30290;DHT22;17105;55.652;37.710;2023-04-30T00:47:53;8.40;92.40
30290;DHT22;17105;55.652;37.710;2023-04-30T00:48:26;8.40;92.40
30290;DHT22;17105;55.652;37.710;2023-04-30T00:49:01;8.40;92.30
30290;DHT22;17105;55.652;37.710;2023-04-30T00:49:37;8.40;92.30
30290;DHT22;17105;55.652;37.710;2023-04-30T00:50:12;8.40;92.30
30290;DHT22;17105;55.652;37.710;2023-04-30T00:50:48;8.40;92.20
30290;DHT22;17105;55.652;37.710;2023-04-30T00:51:22;8.40;92.20
30290;DHT22;17105;55.652;37.710;2023-04-30T00:51:55;8.40;92.20
30290;DHT22;17105;55.652;37.710;2023-04-30T00:52:30;8.40;92.10
30290;DHT22;17105;55.652;37.710;2023-04-30T00:53:03;8.40;92.10
30290;DHT22;17105;55.652;37.710;2023-04-30T00:53:37;8.40;92.10
30290;DHT22;17105;55.652;37.710;2023-04-30T00:54:13;8.40;92.10
30290;DHT22;17105;55.652;37.710;2023-04-30T00:54:46;8.40;92.10
30290;DHT22;17105;55.652;37.710;2023-04-30T00:55:20;8.40;92.10
30290;DHT22;17105;55.652;37.710;2023-04-30T00:55:54;8.40;92.10
30290;DHT22;17105;55.652;37.710;2023-04-30T00:56:30;8.40;92.10
30290;DHT22;17105;55.652;37.710;2023-04-30T00:57:04;8.40;92.00
30290;DHT22;17105;55.652;37.710;2023-04-30T00:57:42;8.40;92.00
30290;DHT22;17105;55.652;37.710;2023-04-30T00:58:15;8.40;92.00
30290;DHT22;17105;55.652;37.710;2023-04-30T00:58:49;8.40;91.90
30290;DHT22;17105;55.652;37.710;2023-04-30T00:59:29;8.40;91.90
30290;DHT22;17105;55.652;37.710;2023-04-30T01:00:03;8.30;91.90
30290;DHT22;17105;55.652;37.710;2023-04-30T01:00:37;8.40;91.90
30290;DHT22;17105;55.652;37.710;2023-04-30T01:01:15;8.30;91.90
30290;DHT22;17105;55.652;37.710;2023-04-30T01:01:51;8.30;91.90
30290;DHT22;17105;55.652;37.710;2023-04-30T01:02:25;8.30;91.90
30290;DHT22;17105;55.652;37.710;2023-04-30T01:03:00;8.30;91.90
30290;DHT22;17105;55.652;37.710;2023-04-30T01:03:34;8.30;91.90
30290;DHT22;17105;55.652;37.710;2023-04-30T01:04:08;8.30;91.90
30290;DHT22;17105;55.652;37.710;2023-04-30T01:04:44;8.30;92.00
30290;DHT22;17105;55.652;37.710;2023-04-30T01:05:20;8.30;92.00
30290;DHT22;17105;55.652;37.710;2023-04-30T01:05:55;8.30;92.00
30290;DHT22;17105;55.652;37.710;2023-04-30T01:06:31;8.30;92.00
30290;DHT22;17105;55.652;37.710;2023-04-30T01:07:05;8.30;92.10
30290;DHT22;17105;55.652;37.710;2023-04-30T01:07:39;8.30;92.10
30290;DHT22;17105;55.652;37.710;2023-04-30T01:08:17;8.30;92.10
30290;DHT22;17105;55.652;37.710;2023-04-30T01:08:50;8.30;92.10
30290;DHT22;17105;55.652;37.710;2023-04-30T01:09:24;8.30;92.10
30290;DHT22;17105;55.652;37.710;2023-04-30T01:10:00;8.30;92.10
30290;DHT22;17105;55.652;37.710;2023-04-30T01:10:40;8.30;92.20
30290;DHT22;17105;55.652;37.710;2023-04-30T01:11:16;8.30;92.20
30290;DHT22;17105;55.652;37.710;2023-04-30T01:11:55;8.30;92.20
30290;DHT22;17105;55.652;37.710;2023-04-30T01:12:38;8.30;92.10
30290;DHT22;17105;55.652;37.710;2023-04-30T01:13:21;8.30;92.00
30290;DHT22;17105;55.652;37.710;2023-04-30T01:14:06;8.30;92.00
30290;DHT22;17105;55.652;37.710;2023-04-30T01:15:23;8.20;91.70
30290;DHT22;17105;55.652;37.710;2023-04-30T01:16:08;8.20;91.90
30290;DHT22;17105;55.652;37.710;2023-04-30T01:16:50;8.20;92.00
30290;DHT22;17105;55.652;37.710;2023-04-30T01:17:31;8.20;91.90
30290;DHT22;17105;55.652;37.710;2023-04-30T01:18:20;8.20;92.00
30290;DHT22;17105;55.652;37.710;2023-04-30T01:19:02;8.20;92.00
30290;DHT22;17105;55.652;37.710;2023-04-30T01:19:42;8.20;92.00
30290;DHT22;17105;55.652;37.710;2023-04-30T01:20:18;8.20;92.00
30290;DHT22;17105;55.652;37.710;2023-04-30T01:20:55;8.20;92.00
30290;DHT22;17105;55.652;37.710;2023-04-30T01:21:31;8.20;92.00
30290;DHT22;17105;55.652;37.710;2023-04-30T01:22:08;8.10;92.00
30290;DHT22;17105;55.652;37.710;2023-04-30T01:22:47;8.10;92.10
30290;DHT22;17105;55.652;37.710;2023-04-30T01:23:32;8.20;92.10
30290;DHT22;17105;55.652;37.710;2023-04-30T01:24:23;8.20;92.10
30290;DHT22;17105;55.652;37.710;2023-04-30T01:25:24;8.10;92.30
30290;DHT22;17105;55.652;37.710;2023-04-30T01:26:14;8.10;92.20
30290;DHT22;17105;55.652;37.710;2023-04-30T01:27:01;8.10;92.20
30290;DHT22;17105;55.652;37.710;2023-04-30T01:27:59;8.10;92.20
30290;DHT22;17105;55.652;37.710;2023-04-30T01:28:36;8.10;92.20
30290;DHT22;17105;55.652;37.710;2023-04-30T01:29:11;8.10;92.30
30290;DHT22;17105;55.652;37.710;2023-04-30T01:29:49;8.10;92.20
30290;DHT22;17105;55.652;37.710;2023-04-30T01:30:24;8.10;92.20
30290;DHT22;17105;55.652;37.710;2023-04-30T01:30:58;8.10;92.20
30290;DHT22;17105;55.652;37.710;2023-04-30T01:31:33;8.10;92.20
30290;DHT22;17105;55.652;37.710;2023-04-30T01:32:09;8.00;92.20
30290;DHT22;17105;55.652;37.710;2023-04-30T01:32:45;8.10;92.30
30290;DHT22;17105;55.652;37.710;2023-04-30T01:33:19;8.10;92.40
30290;DHT22;17105;55.652;37.710;2023-04-30T01:33:55;8.00;92.40
30290;DHT22;17105;55.652;37.710;2023-04-30T01:34:30;8.10;92.50
30290;DHT22;17105;55.652;37.710;2023-04-30T01:35:06;8.00;92.50
30290;DHT22;17105;55.652;37.710;2023-04-30T01:35:53;8.10;92.50
30290;DHT22;17105;55.652;37.710;2023-04-30T01:36:54;8.00;92.50
30290;DHT22;17105;55.652;37.710;2023-04-30T01:37:34;8.00;92.80
30290;DHT22;17105;55.652;37.710;2023-04-30T01:38:19;8.00;92.60
30290;DHT22;17105;55.652;37.710;2023-04-30T01:39:32;8.00;92.60
30290;DHT22;17105;55.652;37.710;2023-04-30T01:40:21;8.00;92.60
30290;DHT22;17105;55.652;37.710;2023-04-30T01:40:59;8.00;92.60
30290;DHT22;17105;55.652;37.710;2023-04-30T01:41:37;7.90;92.60
30290;DHT22;17105;55.652;37.710;2023-04-30T01:42:16;7.90;92.60
30290;DHT22;17105;55.652;37.710;2023-04-30T01:43:08;8.00;92.60
30290;DHT22;17105;55.652;37.710;2023-04-30T01:43:54;8.00;92.70
30290;DHT22;17105;55.652;37.710;2023-04-30T01:44:55;7.90;92.60
30290;DHT22;17105;55.652;37.710;2023-04-30T01:45:43;7.90;92.60
30290;DHT22;17105;55.652;37.710;2023-04-30T01:46:23;8.00;92.70
30290;DHT22;17105;55.652;37.710;2023-04-30T01:47:05;7.90;92.60
30290;DHT22;17105;55.652;37.710;2023-04-30T01:47:45;7.90;92.60
30290;DHT22;17105;55.652;37.710;2023-04-30T01:48:30;7.90;92.70
30290;DHT22;17105;55.652;37.710;2023-04-30T01:49:14;7.90;92.70
30290;DHT22;17105;55.652;37.710;2023-04-30T01:50:00;7.90;92.70
30290;DHT22;17105;55.652;37.710;2023-04-30T01:50:43;7.90;92.70
30290;DHT22;17105;55.652;37.710;2023-04-30T01:51:27;7.90;92.70
30290;DHT22;17105;55.652;37.710;2023-04-30T01:52:10;7.90;92.70
30290;DHT22;17105;55.652;37.710;2023-04-30T01:52:50;7.90;92.70
30290;DHT22;17105;55.652;37.710;2023-04-30T01:53:38;7.90;92.70
30290;DHT22;17105;55.652;37.710;2023-04-30T01:54:18;7.90;92.70
30290;DHT22;17105;55.652;37.710;2023-04-30T01:55:00;7.90;92.70
30290;DHT22;17105;55.652;37.710;2023-04-30T01:55:36;7.90;92.80
30290;DHT22;17105;55.652;37.710;2023-04-30T01:56:27;7.90;92.80
30290;DHT22;17105;55.652;37.710;2023-04-30T01:57:04;7.90;92.80
30290;DHT22;17105;55.652;37.710;2023-04-30T01:57:43;8.00;92.80
30290;DHT22;17105;55.652;37.710;2023-04-30T01:58:21;7.90;92.80
30290;DHT22;17105;55.652;37.710;2023-04-30T01:58:58;7.90;92.80
30290;DHT22;17105;55.652;37.710;2023-04-30T01:59:34;7.90;92.90
30290;DHT22;17105;55.652;37.710;2023-04-30T02:00:10;7.90;92.90
30290;DHT22;17105;55.652;37.710;2023-04-30T02:00:47;7.90;92.90
30290;DHT22;17105;55.652;37.710;2023-04-30T02:01:28;8.00;92.90
30290;DHT22;17105;55.652;37.710;2023-04-30T02:02:01;8.00;93.00
30290;DHT22;17105;55.652;37.710;2023-04-30T02:02:35;8.00;93.00
30290;DHT22;17105;55.652;37.710;2023-04-30T02:03:09;7.90;92.90
30290;DHT22;17105;55.652;37.710;2023-04-30T02:03:43;7.90;92.90
30290;DHT22;17105;55.652;37.710;2023-04-30T02:04:17;7.90;92.90
30290;DHT22;17105;55.652;37.710;2023-04-30T02:04:51;7.90;93.00
30290;DHT22;17105;55.652;37.710;2023-04-30T02:05:25;7.90;93.00
30290;DHT22;17105;55.652;37.710;2023-04-30T02:06:00;7.90;93.00
30290;DHT22;17105;55.652;37.710;2023-04-30T02:06:35;7.90;93.00
30290;DHT22;17105;55.652;37.710;2023-04-30T02:07:09;7.90;93.10
30290;DHT22;17105;55.652;37.710;2023-04-30T02:07:45;7.90;93.30
30290;DHT22;17105;55.652;37.710;2023-04-30T02:08:21;8.00;93.10
30290;DHT22;17105;55.652;37.710;2023-04-30T02:08:56;8.00;93.20
30290;DHT22;17105;55.652;37.710;2023-04-30T02:09:35;8.00;93.20
30290;DHT22;17105;55.652;37.710;2023-04-30T02:10:11;7.90;93.20
30290;DHT22;17105;55.652;37.710;2023-04-30T02:10:45;8.00;93.20
30290;DHT22;17105;55.652;37.710;2023-04-30T02:11:20;8.00;93.20
30290;DHT22;17105;55.652;37.710;2023-04-30T02:11:56;7.90;93.10
30290;DHT22;17105;55.652;37.710;2023-04-30T02:12:29;7.90;93.10
30290;DHT22;17105;55.652;37.710;2023-04-30T02:13:02;7.90;93.20
30290;DHT22;17105;55.652;37.710;2023-04-30T02:13:38;7.90;93.20
30290;DHT22;17105;55.652;37.710;2023-04-30T02:14:12;8.00;93.20
30290;DHT22;17105;55.652;37.710;2023-04-30T02:15:07;7.90;93.20
30290;DHT22;17105;55.652;37.710;2023-04-30T02:15:45;8.00;93.20
30290;DHT22;17105;55.652;37.710;2023-04-30T02:16:19;8.00;93.20
30290;DHT22;17105;55.652;37.710;2023-04-30T02:16:53;8.00;93.20
30290;DHT22;17105;55.652;37.710;2023-04-30T02:17:28;8.00;93.20
30290;DHT22;17105;55.652;37.710;2023-04-30T02:18:01;8.00;93.20
30290;DHT22;17105;55.652;37.710;2023-04-30T02:18:35;8.00;93.20
30290;DHT22;17105;55.652;37.710;2023-04-30T02:19:11;8.00;93.20
30290;DHT22;17105;55.652;37.710;2023-04-30T02:19:45;8.00;93.20
30290;DHT22;17105;55.652;37.710;2023-04-30T02:20:18;8.00;93.10
30290;DHT22;17105;55.652;37.710;2023-04-30T02:20:53;8.00;93.20
30290;DHT22;17105;55.652;37.710;2023-04-30T02:21:27;8.00;93.20
30290;DHT22;17105;55.652;37.710;2023-04-30T02:22:01;8.00;93.20
30290;DHT22;17105;55.652;37.710;2023-04-30T02:22:35;8.00;93.20
30290;DHT22;17105;55.652;37.710;2023-04-30T02:23:09;8.00;93.30
30290;DHT22;17105;55.652;37.710;2023-04-30T02:23:43;8.00;93.20
30290;DHT22;17105;55.652;37.710;2023-04-30T02:24:18;8.00;93.30
30290;DHT22;17105;55.652;37.710;2023-04-30T02:24:53;8.00;93.30
30290;DHT22;17105;55.652;37.710;2023-04-30T02:25:28;8.00;93.30
30290;DHT22;17105;55.652;37.710;2023-04-30T02:26:05;8.00;93.30
30290;DHT22;17105;55.652;37.710;2023-04-30T02:26:40;8.00;93.40
30290;DHT22;17105;55.652;37.710;2023-04-30T02:27:14;8.00;93.40
30290;DHT22;17105;55.652;37.710;2023-04-30T02:27:48;8.00;93.40
30290;DHT22;17105;55.652;37.710;2023-04-30T02:28:23;8.00;93.40
30290;DHT22;17105;55.652;37.710;2023-04-30T02:28:59;8.00;93.40
30290;DHT22;17105;55.652;37.710;2023-04-30T02:29:33;8.00;93.40
30290;DHT22;17105;55.652;37.710;2023-04-30T02:30:08;8.00;93.40
30290;DHT22;17105;55.652;37.710;2023-04-30T02:30:42;8.10;93.40
30290;DHT22;17105;55.652;37.710;2023-04-30T02:31:16;8.00;93.40
30290;DHT22;17105;55.652;37.710;2023-04-30T02:31:51;8.00;93.50
30290;DHT22;17105;55.652;37.710;2023-04-30T02:32:25;8.10;93.50
30290;DHT22;17105;55.652;37.710;2023-04-30T02:32:59;8.10;93.50
30290;DHT22;17105;55.652;37.710;2023-04-30T02:33:34;8.10;93.50
30290;DHT22;17105;55.652;37.710;2023-04-30T02:34:08;8.10;93.50
30290;DHT22;17105;55.652;37.710;2023-04-30T02:34:42;8.10;93.50
30290;DHT22;17105;55.652;37.710;2023-04-30T02:35:17;8.10;93.50
30290;DHT22;17105;55.652;37.710;2023-04-30T02:35:51;8.10;93.50
30290;DHT22;17105;55.652;37.710;2023-04-30T02:36:24;8.10;93.80
30290;DHT22;17105;55.652;37.710;2023-04-30T02:37:01;8.10;93.60
30290;DHT22;17105;55.652;37.710;2023-04-30T02:37:36;8.10;93.60
30290;DHT22;17105;55.652;37.710;2023-04-30T02:38:11;8.20;93.60
30290;DHT22;17105;55.652;37.710;2023-04-30T02:38:45;8.20;93.70
30290;DHT22;17105;55.652;37.710;2023-04-30T02:39:20;8.20;93.60
30290;DHT22;17105;55.652;37.710;2023-04-30T02:39:54;8.20;93.60
30290;DHT22;17105;55.652;37.710;2023-04-30T02:40:30;8.20;93.60
30290;DHT22;17105;55.652;37.710;2023-04-30T02:41:03;8.20;93.60
30290;DHT22;17105;55.652;37.710;2023-04-30T02:41:38;8.20;93.60
30290;DHT22;17105;55.652;37.710;2023-04-30T02:42:11;8.30;93.60
30290;DHT22;17105;55.652;37.710;2023-04-30T02:42:44;8.30;93.60
30290;DHT22;17105;55.652;37.710;2023-04-30T02:43:20;8.30;93.60
30290;DHT22;17105;55.652;37.710;2023-04-30T02:43:55;8.30;93.60
30290;DHT22;17105;55.652;37.710;2023-04-30T02:44:31;8.30;93.60
30290;DHT22;17105;55.652;37.710;2023-04-30T02:45:06;8.30;93.60
30290;DHT22;17105;55.652;37.710;2023-04-30T02:45:41;8.40;93.60
30290;DHT22;17105;55.652;37.710;2023-04-30T02:46:14;8.40;93.60
30290;DHT22;17105;55.652;37.710;2023-04-30T02:46:48;8.40;93.60
30290;DHT22;17105;55.652;37.710;2023-04-30T02:47:23;8.40;93.60
30290;DHT22;17105;55.652;37.710;2023-04-30T02:47:58;8.40;93.60
30290;DHT22;17105;55.652;37.710;2023-04-30T02:48:33;8.40;93.50
30290;DHT22;17105;55.652;37.710;2023-04-30T02:49:07;8.50;93.60
30290;DHT22;17105;55.652;37.710;2023-04-30T02:49:41;8.50;93.50
30290;DHT22;17105;55.652;37.710;2023-04-30T02:50:16;8.50;93.50
30290;DHT22;17105;55.652;37.710;2023-04-30T02:50:50;8.50;93.50
30290;DHT22;17105;55.652;37.710;2023-04-30T02:51:24;8.50;93.40
30290;DHT22;17105;55.652;37.710;2023-04-30T02:51:58;8.50;93.40
30290;DHT22;17105;55.652;37.710;2023-04-30T02:52:31;8.50;93.40
30290;DHT22;17105;55.652;37.710;2023-04-30T02:53:06;8.60;93.40
30290;DHT22;17105;55.652;37.710;2023-04-30T02:53:39;8.60;93.40
30290;DHT22;17105;55.652;37.710;2023-04-30T02:54:12;8.60;93.30
30290;DHT22;17105;55.652;37.710;2023-04-30T02:54:47;8.60;93.30
30290;DHT22;17105;55.652;37.710;2023-04-30T02:55:21;8.60;93.30
30290;DHT22;17105;55.652;37.710;2023-04-30T02:55:55;8.60;93.30
30290;DHT22;17105;55.652;37.710;2023-04-30T02:56:31;8.60;93.30
30290;DHT22;17105;55.652;37.710;2023-04-30T02:57:05;8.60;93.30
30290;DHT22;17105;55.652;37.710;2023-04-30T02:57:40;8.60;93.30
30290;DHT22;17105;55.652;37.710;2023-04-30T02:58:17;8.70;93.30
30290;DHT22;17105;55.652;37.710;2023-04-30T02:58:51;8.70;93.30
30290;DHT22;17105;55.652;37.710;2023-04-30T02:59:26;8.70;93.30
30290;DHT22;17105;55.652;37.710;2023-04-30T03:00:03;8.70;93.20
30290;DHT22;17105;55.652;37.710;2023-04-30T03:00:37;8.80;93.30
30290;DHT22;17105;55.652;37.710;2023-04-30T03:01:11;8.80;93.20
30290;DHT22;17105;55.652;37.710;2023-04-30T03:01:45;8.80;93.20
30290;DHT22;17105;55.652;37.710;2023-04-30T03:02:19;8.80;93.30
30290;DHT22;17105;55.652;37.710;2023-04-30T03:02:53;8.90;93.30
30290;DHT22;17105;55.652;37.710;2023-04-30T03:03:28;8.90;93.30
30290;DHT22;17105;55.652;37.710;2023-04-30T03:04:02;9.00;93.40
30290;DHT22;17105;55.652;37.710;2023-04-30T03:04:36;9.00;93.40
30290;DHT22;17105;55.652;37.710;2023-04-30T03:05:12;9.10;93.40
30290;DHT22;17105;55.652;37.710;2023-04-30T03:05:47;9.10;93.40
30290;DHT22;17105;55.652;37.710;2023-04-30T03:06:21;9.20;93.50
30290;DHT22;17105;55.652;37.710;2023-04-30T03:06:57;9.30;93.50
30290;DHT22;17105;55.652;37.710;2023-04-30T03:07:32;9.40;93.50
30290;DHT22;17105;55.652;37.710;2023-04-30T03:08:06;9.40;93.50
30290;DHT22;17105;55.652;37.710;2023-04-30T03:08:41;9.50;93.40
30290;DHT22;17105;55.652;37.710;2023-04-30T03:09:15;9.60;93.50
30290;DHT22;17105;55.652;37.710;2023-04-30T03:09:50;9.70;93.50
30290;DHT22;17105;55.652;37.710;2023-04-30T03:10:25;9.70;93.50
30290;DHT22;17105;55.652;37.710;2023-04-30T03:10:59;9.80;93.50
30290;DHT22;17105;55.652;37.710;2023-04-30T03:11:33;9.90;93.40
30290;DHT22;17105;55.652;37.710;2023-04-30T03:12:09;9.90;93.30
30290;DHT22;17105;55.652;37.710;2023-04-30T03:12:44;10.00;93.10
30290;DHT22;17105;55.652;37.710;2023-04-30T03:13:17;10.10;92.90
30290;DHT22;17105;55.652;37.710;2023-04-30T03:13:52;10.20;92.80
30290;DHT22;17105;55.652;37.710;2023-04-30T03:14:25;10.20;92.70
30290;DHT22;17105;55.652;37.710;2023-04-30T03:14:58;10.30;92.60
30290;DHT22;17105;55.652;37.710;2023-04-30T03:15:36;10.40;92.60
30290;DHT22;17105;55.652;37.710;2023-04-30T03:16:10;10.50;92.50
30290;DHT22;17105;55.652;37.710;2023-04-30T03:16:45;10.50;92.40
30290;DHT22;17105;55.652;37.710;2023-04-30T03:17:20;10.50;92.20
30290;DHT22;17105;55.652;37.710;2023-04-30T03:17:55;10.60;92.00
30290;DHT22;17105;55.652;37.710;2023-04-30T03:18:30;10.60;91.90
30290;DHT22;17105;55.652;37.710;2023-04-30T03:19:03;10.60;91.80
30290;DHT22;17105;55.652;37.710;2023-04-30T03:19:37;10.70;91.60
30290;DHT22;17105;55.652;37.710;2023-04-30T03:20:12;10.70;91.40
30290;DHT22;17105;55.652;37.710;2023-04-30T03:20:46;10.70;91.20
30290;DHT22;17105;55.652;37.710;2023-04-30T03:21:20;10.70;91.00
30290;DHT22;17105;55.652;37.710;2023-04-30T03:21:55;10.60;91.00
30290;DHT22;17105;55.652;37.710;2023-04-30T03:22:29;10.60;91.00
30290;DHT22;17105;55.652;37.710;2023-04-30T03:23:04;10.60;91.10
30290;DHT22;17105;55.652;37.710;2023-04-30T03:23:38;10.60;91.10
30290;DHT22;17105;55.652;37.710;2023-04-30T03:24:11;10.60;91.20
30290;DHT22;17105;55.652;37.710;2023-04-30T03:24:44;10.60;91.20
30290;DHT22;17105;55.652;37.710;2023-04-30T03:25:19;10.60;91.10
30290;DHT22;17105;55.652;37.710;2023-04-30T03:25:52;10.60;90.90
30290;DHT22;17105;55.652;37.710;2023-04-30T03:26:26;10.60;90.70
30290;DHT22;17105;55.652;37.710;2023-04-30T03:27:01;10.70;90.60
30290;DHT22;17105;55.652;37.710;2023-04-30T03:27:34;10.70;90.40
30290;DHT22;17105;55.652;37.710;2023-04-30T03:28:08;10.70;90.30
30290;DHT22;17105;55.652;37.710;2023-04-30T03:28:43;10.70;90.10
30290;DHT22;17105;55.652;37.710;2023-04-30T03:29:17;10.80;90.10
30290;DHT22;17105;55.652;37.710;2023-04-30T03:29:50;10.80;90.10
30290;DHT22;17105;55.652;37.710;2023-04-30T03:30:25;10.80;90.20
30290;DHT22;17105;55.652;37.710;2023-04-30T03:31:00;10.80;90.10
30290;DHT22;17105;55.652;37.710;2023-04-30T03:31:37;10.80;89.90
30290;DHT22;17105;55.652;37.710;2023-04-30T03:32:12;10.80;90.00
30290;DHT22;17105;55.652;37.710;2023-04-30T03:32:45;10.80;90.20
30290;DHT22;17105;55.652;37.710;2023-04-30T03:33:20;10.80;89.60
30290;DHT22;17105;55.652;37.710;2023-04-30T03:33:55;10.80;89.40
30290;DHT22;17105;55.652;37.710;2023-04-30T03:34:29;10.80;89.50
30290;DHT22;17105;55.652;37.710;2023-04-30T03:35:05;10.70;89.60
30290;DHT22;17105;55.652;37.710;2023-04-30T03:35:41;10.70;89.50
30290;DHT22;17105;55.652;37.710;2023-04-30T03:36:14;10.80;89.40
30290;DHT22;17105;55.652;37.710;2023-04-30T03:36:49;10.80;89.00
30290;DHT22;17105;55.652;37.710;2023-04-30T03:37:23;10.80;89.00
30290;DHT22;17105;55.652;37.710;2023-04-30T03:37:56;10.80;89.00
30290;DHT22;17105;55.652;37.710;2023-04-30T03:38:30;10.80;88.60
30290;DHT22;17105;55.652;37.710;2023-04-30T03:39:03;10.80;88.10
30290;DHT22;17105;55.652;37.710;2023-04-30T03:39:36;10.80;87.90
30290;DHT22;17105;55.652;37.710;2023-04-30T03:40:12;10.80;87.70
30290;DHT22;17105;55.652;37.710;2023-04-30T03:40:47;10.90;87.50
30290;DHT22;17105;55.652;37.710;2023-04-30T03:41:20;10.90;87.20
30290;DHT22;17105;55.652;37.710;2023-04-30T03:41:55;11.00;86.80
30290;DHT22;17105;55.652;37.710;2023-04-30T03:42:29;11.00;85.80
30290;DHT22;17105;55.652;37.710;2023-04-30T03:43:02;11.00;85.60
30290;DHT22;17105;55.652;37.710;2023-04-30T03:43:37;11.00;85.70
30290;DHT22;17105;55.652;37.710;2023-04-30T03:44:10;11.10;85.60
30290;DHT22;17105;55.652;37.710;2023-04-30T03:44:47;11.10;85.20
30290;DHT22;17105;55.652;37.710;2023-04-30T03:45:23;11.10;85.40
30290;DHT22;17105;55.652;37.710;2023-04-30T03:45:59;11.10;85.40
30290;DHT22;17105;55.652;37.710;2023-04-30T03:46:33;11.10;85.20
30290;DHT22;17105;55.652;37.710;2023-04-30T03:47:08;11.10;85.00
30290;DHT22;17105;55.652;37.710;2023-04-30T03:47:42;11.10;84.80